ESSP/NRK METAR and TAF weather

Enter ICAO airport designator
Station Type Date Time Source
ESSP METAR 2022/06/27 07:50 UTC NOAA

ESSP 270750Z 13006KT 080V160 CAVOK 26/17 Q1018


Station Type Date Time Source
ESSP Decoded METAR 2022/06/27 07:50 UTC NOAA

Norrkoping, Sweden (ESSP) 58-35N 016-09E 0M
Jun 27, 2022 - 03:50 AM EDT / 2022.06.27 0750 UTC
Wind: from the SE (130 degrees) at 7 MPH (6 KT) (direction variable):0
Visibility: greater than 7 mile(s):0
Temperature: 78 F (26 C)
Dew Point: 62 F (17 C)
Relative Humidity: 57%
Pressure (altimeter): 30.06 in. Hg (1018 hPa)
ob: ESSP 270750Z 13006KT 080V160 CAVOK 26/17 Q1018
cycle: 8

Station Type Date Time Source
ESSP TAF 2018/01/01 02:31 UTC NOAA

TAF ESSP 010130Z 0102/0206 16002KT 9999 BKN004 PROB40 0102/0106 4000 BR SCT004

Example: see airport list